Time;durP1;ratioP1;P1;durP2;ratioP2;P2;SDS_P1;SDS_P2;PMS_P1;PMS_P2;Temp;Humidity;BMP_temperature;BMP_pressure;BME280_temperature;BME280_humidity;BME280_pressure;Samples;Min_cycle;Max_cycle;Signal;HPM_P1;HPM_P2
2022/03/09 00:00:09;;;;;;;5.82;3.88;;;-1.00;99.90;;;;;;5092223;28;20155;-73
2022/03/09 00:02:35;;;;;;;4.63;2.90;;;-0.80;99.90;;;;;;5092197;28;20156;-73
2022/03/09 00:05:02;;;;;;;6.95;2.67;;;-0.70;99.90;;;;;;5091858;28;20299;-73
2022/03/09 00:07:27;;;;;;;4.97;2.60;;;-0.70;99.90;;;;;;5090918;28;20164;-73
2022/03/09 00:09:54;;;;;;;4.22;2.35;;;-0.80;99.90;;;;;;5092196;28;20163;-73
2022/03/09 00:12:20;;;;;;;5.88;2.55;;;-0.80;99.90;;;;;;5090742;28;20218;-72
2022/03/09 00:14:46;;;;;;;8.38;2.75;;;-0.90;99.90;;;;;;5090514;28;20254;-73
2022/03/09 00:17:12;;;;;;;5.35;2.95;;;-1.10;99.90;;;;;;5090827;28;20631;-73
2022/03/09 00:19:38;;;;;;;6.63;2.60;;;-1.20;99.90;;;;;;5091989;28;20160;-73
2022/03/09 00:22:04;;;;;;;4.55;1.75;;;-1.20;99.90;;;;;;5092088;28;20191;-73
2022/03/09 00:24:30;;;;;;;6.50;2.97;;;-1.20;99.90;;;;;;5091719;28;20187;-72
2022/03/09 00:26:56;;;;;;;2.83;2.08;;;-1.20;99.90;;;;;;5090492;28;20176;-72
2022/03/09 00:29:22;;;;;;;3.75;1.95;;;-1.20;99.90;;;;;;5091728;28;20621;-72
2022/03/09 00:31:48;;;;;;;5.70;2.85;;;-1.30;99.90;;;;;;5087401;28;20218;-73
2022/03/09 00:34:13;;;;;;;3.80;2.10;;;-1.30;99.90;;;;;;5069218;28;20161;-72
2022/03/09 00:36:39;;;;;;;5.20;2.33;;;-1.40;99.90;;;;;;5070974;28;20184;-72
2022/03/09 00:39:05;;;;;;;7.85;2.47;;;-1.50;99.90;;;;;;5070975;28;20173;-72
2022/03/09 00:41:31;;;;;;;4.30;2.20;;;-1.50;99.90;;;;;;5071259;28;20146;-73
2022/03/09 00:43:57;;;;;;;4.45;2.50;;;-1.50;99.90;;;;;;5071205;28;20161;-72
2022/03/09 00:46:23;;;;;;;5.82;2.35;;;-1.40;99.90;;;;;;5071229;28;20196;-73
2022/03/09 00:48:49;;;;;;;5.53;2.47;;;-1.30;99.90;;;;;;5069691;28;20192;-72
2022/03/09 00:51:14;;;;;;;7.20;2.08;;;-1.30;99.90;;;;;;5068666;28;20169;-72
2022/03/09 00:53:40;;;;;;;3.35;2.10;;;-1.40;99.90;;;;;;5070863;28;20185;-72
2022/03/09 00:56:07;;;;;;;5.15;2.33;;;-1.50;99.90;;;;;;5072546;28;20153;-72
2022/03/09 00:58:32;;;;;;;3.55;2.13;;;-1.50;99.90;;;;;;5087755;28;20184;-73
2022/03/09 01:00:58;;;;;;;3.40;2.20;;;-1.50;99.90;;;;;;5089676;28;20187;-72
2022/03/09 01:03:24;;;;;;;3.85;2.42;;;-1.50;99.90;;;;;;5090618;28;20222;-73
2022/03/09 01:05:50;;;;;;;5.88;2.40;;;-1.50;99.90;;;;;;5090864;28;20183;-72
2022/03/09 01:08:16;;;;;;;10.13;3.13;;;-1.50;99.90;;;;;;5090937;28;20172;-72
2022/03/09 01:10:42;;;;;;;6.07;2.95;;;-1.50;99.90;;;;;;5090788;28;20215;-73
2022/03/09 01:13:08;;;;;;;5.45;3.00;;;-1.60;99.90;;;;;;5078433;28;20195;-72
2022/03/09 01:15:34;;;;;;;7.15;3.03;;;-1.70;99.90;;;;;;5086459;28;20239;-72
2022/03/09 01:18:00;;;;;;;7.03;3.20;;;-1.80;99.90;;;;;;5070746;28;20156;-72
2022/03/09 01:20:26;;;;;;;14.45;3.50;;;-1.80;99.90;;;;;;5077114;28;20203;-72
2022/03/09 01:22:52;;;;;;;6.60;3.10;;;-1.90;99.90;;;;;;5090578;28;20167;-72
2022/03/09 01:25:19;;;;;;;4.15;3.17;;;-1.90;99.90;;;;;;5090540;28;20171;-73
2022/03/09 01:27:45;;;;;;;5.72;3.28;;;-1.90;99.90;;;;;;5089329;28;20221;-73
2022/03/09 01:30:11;;;;;;;8.50;4.00;;;-2.00;99.90;;;;;;5071096;28;20654;-72
2022/03/09 01:32:37;;;;;;;11.25;4.55;;;-2.00;99.90;;;;;;5068919;28;20230;-72
2022/03/09 01:35:05;;;;;;;7.70;3.80;;;-2.00;99.90;;;;;;5070474;28;20650;-72
2022/03/09 01:37:30;;;;;;;9.23;4.15;;;-2.00;99.90;;;;;;5070338;28;20149;-72
2022/03/09 01:39:56;;;;;;;7.63;4.25;;;-2.00;99.90;;;;;;5070241;28;20256;-72
2022/03/09 01:42:22;;;;;;;5.88;3.35;;;-2.00;99.90;;;;;;5070247;28;20161;-72
2022/03/09 01:44:48;;;;;;;6.45;3.08;;;-2.20;99.90;;;;;;5070358;28;20191;-72
2022/03/09 01:47:14;;;;;;;6.28;3.17;;;-2.30;99.90;;;;;;5085469;28;20203;-72
2022/03/09 01:49:40;;;;;;;5.65;3.63;;;-2.40;99.90;;;;;;5088727;28;20199;-72
2022/03/09 01:52:07;;;;;;;7.65;3.40;;;-2.50;99.90;;;;;;5090008;28;20199;-73
2022/03/09 01:54:33;;;;;;;7.03;3.60;;;-2.50;99.90;;;;;;5090076;28;20156;-73
2022/03/09 01:57:00;;;;;;;7.30;3.78;;;-2.60;99.90;;;;;;5090148;28;20617;-73
2022/03/09 01:59:27;;;;;;;16.00;4.15;;;-2.60;99.90;;;;;;5089829;28;20196;-73
2022/03/09 02:01:53;;;;;;;21.65;4.22;;;-2.60;99.90;;;;;;5086253;28;20187;-72
2022/03/09 02:04:20;;;;;;;11.00;4.18;;;-2.70;99.90;;;;;;5089684;28;20231;-73
2022/03/09 02:06:46;;;;;;;5.22;3.78;;;-2.80;99.90;;;;;;5089830;28;20186;-73
2022/03/09 02:11:58;;;;;;;13.70;4.03;;;-2.70;99.90;;;;;;5089726;28;20187;-73
2022/03/09 02:14:36;;;;;;;8.65;4.25;;;-2.70;99.90;;;;;;5089761;28;20156;-73
2022/03/09 02:17:16;;;;;;;9.63;3.80;;;-2.80;99.90;;;;;;5088299;28;20190;-73
2022/03/09 02:19:46;;;;;;;6.90;3.58;;;-2.90;99.90;;;;;;5085393;28;20681;-72
2022/03/09 02:22:37;;;;;;;8.73;3.22;;;-2.90;99.90;;;;;;5068118;28;20203;-73
2022/03/09 02:25:12;;;;;;;6.63;3.58;;;-3.00;99.90;;;;;;5069388;28;20243;-73
2022/03/09 02:27:39;;;;;;;6.63;3.13;;;-3.00;99.90;;;;;;5068020;28;20239;-72
2022/03/09 02:30:07;;;;;;;11.68;4.28;;;-3.10;99.90;;;;;;5068056;28;20175;-72
2022/03/09 02:32:39;;;;;;;6.50;3.50;;;-2.90;99.90;;;;;;5069157;28;20223;-73
2022/03/09 02:35:05;;;;;;;10.73;5.13;;;-3.10;99.90;;;;;;5069297;28;20164;-72
2022/03/09 02:37:30;;;;;;;5.43;3.28;;;-3.20;99.90;;;;;;5067860;28;20169;-72
2022/03/09 02:39:56;;;;;;;10.45;3.95;;;-3.00;99.90;;;;;;5069180;28;20172;-72
2022/03/09 02:42:22;;;;;;;8.82;4.18;;;-2.90;99.90;;;;;;5067856;28;20256;-72
2022/03/09 02:44:48;;;;;;;5.78;3.03;;;-3.00;99.90;;;;;;5071917;28;20273;-72
2022/03/09 02:47:14;;;;;;;15.38;3.92;;;-3.00;99.90;;;;;;5087653;28;20199;-72
2022/03/09 02:49:40;;;;;;;9.25;4.18;;;-3.10;99.90;;;;;;5089171;28;20164;-72
2022/03/09 02:52:06;;;;;;;8.20;3.97;;;-3.10;99.90;;;;;;5089077;28;20187;-72
2022/03/09 02:54:32;;;;;;;9.25;3.13;;;-3.20;99.90;;;;;;5087675;28;20176;-74
2022/03/09 02:56:58;;;;;;;7.50;2.88;;;-3.20;99.90;;;;;;5088778;28;20167;-74
2022/03/09 02:59:24;;;;;;;8.90;3.42;;;-3.20;99.90;;;;;;5087814;28;20171;-73
2022/03/09 03:01:50;;;;;;;8.27;3.60;;;-3.20;99.90;;;;;;5088986;28;20164;-73
2022/03/09 03:04:16;;;;;;;5.85;2.80;;;-3.10;99.90;;;;;;5088775;28;20231;-74
2022/03/09 03:06:41;;;;;;;8.95;3.80;;;-3.10;99.90;;;;;;5088943;28;20152;-74
2022/03/09 03:09:07;;;;;;;11.38;5.00;;;-3.00;99.90;;;;;;5087789;28;20542;-74
2022/03/09 03:11:33;;;;;;;10.55;5.18;;;-2.90;99.90;;;;;;5088782;28;20175;-74
2022/03/09 03:13:59;;;;;;;15.70;5.60;;;-2.80;99.90;;;;;;5089001;28;20182;-74
2022/03/09 03:16:25;;;;;;;11.77;5.43;;;-2.70;99.90;;;;;;5087497;28;20219;-73
2022/03/09 03:18:51;;;;;;;9.88;5.07;;;-2.60;99.90;;;;;;5088818;28;20160;-73
2022/03/09 03:21:17;;;;;;;8.25;4.70;;;-2.50;99.90;;;;;;5088799;28;20175;-74
2022/03/09 03:23:42;;;;;;;8.85;4.50;;;-2.50;99.90;;;;;;5088838;28;20175;-74
2022/03/09 03:26:08;;;;;;;10.40;4.53;;;-2.50;99.90;;;;;;5088875;28;20187;-74
2022/03/09 03:28:35;;;;;;;11.10;4.07;;;-2.50;99.90;;;;;;5087535;28;20191;-74
2022/03/09 03:31:01;;;;;;;12.23;4.88;;;-2.50;99.90;;;;;;5088864;28;20186;-74
2022/03/09 03:33:27;;;;;;;8.15;4.32;;;-2.50;99.90;;;;;;5087310;28;20204;-74
2022/03/09 03:35:53;;;;;;;18.33;3.97;;;-2.60;99.90;;;;;;5087457;28;20695;-73
2022/03/09 03:38:18;;;;;;;8.40;3.60;;;-2.70;99.90;;;;;;5088699;28;20156;-72
2022/03/09 03:40:45;;;;;;;7.65;4.15;;;-2.70;99.90;;;;;;5087186;28;20164;-74
2022/03/09 03:43:11;;;;;;;9.15;3.30;;;-2.80;99.90;;;;;;5087082;28;20171;-73
2022/03/09 03:45:36;;;;;;;4.63;3.38;;;-2.70;99.90;;;;;;5088453;28;20703;-74
2022/03/09 03:48:03;;;;;;;6.65;3.42;;;-2.70;99.90;;;;;;5088380;28;20161;-74
2022/03/09 03:50:29;;;;;;;9.55;3.42;;;-2.80;99.90;;;;;;5088678;28;20164;-72
2022/03/09 03:52:55;;;;;;;6.65;3.45;;;-2.90;99.90;;;;;;5088506;28;20222;-73
2022/03/09 03:55:21;;;;;;;5.88;3.85;;;-2.90;99.90;;;;;;5088557;28;20208;-72
2022/03/09 03:57:47;;;;;;;4.45;3.35;;;-2.80;99.90;;;;;;5088469;28;20160;-72
2022/03/09 04:00:14;;;;;;;14.50;4.63;;;-2.80;99.90;;;;;;5088452;28;20168;-74
2022/03/09 04:02:40;;;;;;;11.48;3.95;;;-2.80;99.90;;;;;;5086932;28;20202;-72
2022/03/09 04:05:06;;;;;;;8.60;4.38;;;-2.60;99.90;;;;;;5088207;28;20235;-72
2022/03/09 04:07:33;;;;;;;7.60;4.72;;;-2.60;99.90;;;;;;5088432;28;20324;-72
2022/03/09 04:10:00;;;;;;;12.85;4.13;;;-2.60;99.90;;;;;;5088713;28;20164;-72
2022/03/09 04:12:26;;;;;;;8.27;5.10;;;-2.60;99.90;;;;;;5091876;28;20671;-72
2022/03/09 04:14:54;;;;;;;11.57;6.18;;;-2.60;99.90;;;;;;5091983;28;20211;-72
2022/03/09 04:17:19;;;;;;;7.80;4.85;;;-2.60;99.90;;;;;;5090692;28;20222;-73
2022/03/09 04:19:45;;;;;;;12.20;4.82;;;-2.70;99.90;;;;;;5091950;28;20156;-73
2022/03/09 04:22:11;;;;;;;15.20;5.45;;;-2.80;99.90;;;;;;5091936;28;20159;-73
2022/03/09 04:24:37;;;;;;;10.00;5.03;;;-2.90;99.90;;;;;;5091801;28;20192;-73
2022/03/09 04:27:05;;;;;;;11.35;4.63;;;-3.00;99.90;;;;;;5090547;28;20210;-73
2022/03/09 04:29:32;;;;;;;7.47;4.65;;;-3.10;99.90;;;;;;5090523;28;20168;-73
2022/03/09 04:31:58;;;;;;;8.23;4.32;;;-3.10;99.90;;;;;;5091563;28;20184;-73
2022/03/09 04:34:24;;;;;;;7.50;3.88;;;-3.20;99.90;;;;;;5090296;28;20171;-73
2022/03/09 04:36:50;;;;;;;9.73;4.53;;;-3.20;99.90;;;;;;5091860;28;20200;-73
2022/03/09 04:39:16;;;;;;;10.77;4.82;;;-3.00;99.90;;;;;;5090193;28;20194;-73
2022/03/09 04:41:42;;;;;;;11.07;5.32;;;-3.00;99.90;;;;;;5091413;28;20152;-72
2022/03/09 04:44:08;;;;;;;11.98;5.00;;;-3.10;99.90;;;;;;5091448;28;20168;-73
2022/03/09 04:46:34;;;;;;;10.30;4.97;;;-3.10;99.90;;;;;;5091283;28;20199;-72
2022/03/09 04:49:00;;;;;;;10.95;4.68;;;-3.10;99.90;;;;;;5091074;28;20160;-72
2022/03/09 04:51:26;;;;;;;9.55;4.47;;;-3.20;99.90;;;;;;5091103;28;20161;-73
2022/03/09 04:53:52;;;;;;;8.10;4.45;;;-3.30;99.90;;;;;;5091370;28;20190;-73
2022/03/09 04:56:18;;;;;;;9.25;5.70;;;-3.40;99.90;;;;;;5091145;28;20211;-73
2022/03/09 04:58:44;;;;;;;11.75;5.50;;;-3.40;99.90;;;;;;5091073;28;20160;-73
2022/03/09 05:01:09;;;;;;;17.58;5.43;;;-3.60;99.90;;;;;;5091106;28;20226;-73
2022/03/09 05:03:37;;;;;;;11.65;4.50;;;-3.70;99.90;;;;;;5089484;28;20586;-73
2022/03/09 05:06:04;;;;;;;10.52;5.47;;;-3.60;99.90;;;;;;5090989;28;20195;-73
2022/03/09 05:08:30;;;;;;;12.68;4.18;;;-3.70;99.90;;;;;;5091035;28;20205;-73
2022/03/09 05:10:56;;;;;;;9.10;4.68;;;-3.70;99.90;;;;;;5089636;28;20176;-73
2022/03/09 05:13:23;;;;;;;10.13;4.32;;;-3.70;99.90;;;;;;5089554;28;20204;-73
2022/03/09 05:15:49;;;;;;;6.82;4.57;;;-3.70;99.90;;;;;;5089484;28;20188;-73
2022/03/09 05:18:15;;;;;;;7.32;5.47;;;-3.70;99.90;;;;;;5089369;28;20164;-73
2022/03/09 05:20:41;;;;;;;9.95;4.57;;;-3.70;99.90;;;;;;5090641;28;20167;-73
2022/03/09 05:23:07;;;;;;;6.22;4.22;;;-3.70;99.90;;;;;;5090778;28;20160;-73
2022/03/09 05:25:33;;;;;;;9.70;5.28;;;-3.70;99.90;;;;;;5089387;28;20225;-73
2022/03/09 05:28:01;;;;;;;14.75;5.50;;;-3.70;99.90;;;;;;5090668;28;20217;-72
2022/03/09 05:30:28;;;;;;;5.43;4.15;;;-3.70;99.90;;;;;;5090679;28;20215;-72
2022/03/09 05:32:54;;;;;;;8.10;4.60;;;-3.70;99.90;;;;;;5090653;28;20256;-73
2022/03/09 05:35:19;;;;;;;9.48;3.08;;;-3.50;99.90;;;;;;5089235;28;20207;-73
2022/03/09 05:37:46;;;;;;;8.77;3.83;;;-3.40;99.90;;;;;;5090408;28;20156;-73
2022/03/09 05:40:13;;;;;;;7.05;3.63;;;-3.40;99.90;;;;;;5090287;28;20156;-73
2022/03/09 05:42:39;;;;;;;6.05;3.83;;;-3.40;99.90;;;;;;5090123;28;20238;-73
2022/03/09 05:45:06;;;;;;;7.35;3.60;;;-3.40;99.90;;;;;;5090235;28;20212;-73
2022/03/09 05:47:32;;;;;;;7.53;3.38;;;-3.30;99.90;;;;;;5090130;28;20181;-73
2022/03/09 05:49:59;;;;;;;9.25;3.40;;;-3.30;99.90;;;;;;5090181;28;20164;-73
2022/03/09 05:52:25;;;;;;;5.47;3.00;;;-3.30;99.90;;;;;;5090040;28;20188;-73
2022/03/09 05:54:51;;;;;;;9.23;2.78;;;-3.30;99.90;;;;;;5089958;28;20272;-73
2022/03/09 05:57:19;;;;;;;10.10;3.80;;;-3.30;99.90;;;;;;5089764;28;20187;-73
2022/03/09 05:59:45;;;;;;;9.65;3.38;;;-3.20;99.90;;;;;;5089759;28;20160;-72
2022/03/09 06:02:11;;;;;;;6.38;3.35;;;-3.00;99.90;;;;;;5089946;28;20164;-72
2022/03/09 06:04:37;;;;;;;9.05;3.45;;;-2.90;99.90;;;;;;5088098;28;20238;-73
2022/03/09 06:07:04;;;;;;;5.90;3.80;;;-2.80;99.90;;;;;;5089707;28;20570;-73
2022/03/09 06:09:30;;;;;;;6.97;3.20;;;-2.70;99.90;;;;;;5088315;28;20210;-72
2022/03/09 06:11:59;;;;;;;6.53;3.30;;;-2.60;99.90;;;;;;5089489;28;20180;-72
2022/03/09 06:14:25;;;;;;;11.57;3.80;;;-2.50;99.90;;;;;;5089629;28;20156;-72
2022/03/09 06:16:51;;;;;;;10.38;3.60;;;-2.40;99.90;;;;;;5089261;28;20214;-73
2022/03/09 06:19:18;;;;;;;7.22;4.28;;;-2.30;99.90;;;;;;5088217;28;20231;-73
2022/03/09 06:21:44;;;;;;;5.95;3.58;;;-2.20;99.90;;;;;;5089461;28;20213;-73
2022/03/09 06:24:11;;;;;;;9.43;4.45;;;-2.10;99.90;;;;;;5088173;28;20273;-72
2022/03/09 06:26:38;;;;;;;8.82;4.22;;;-2.00;99.90;;;;;;5089247;28;20192;-73
2022/03/09 06:29:05;;;;;;;12.77;5.20;;;-1.90;99.90;;;;;;5088155;28;20202;-72
2022/03/09 06:31:32;;;;;;;8.85;4.93;;;-1.80;99.90;;;;;;5089059;28;20235;-73
2022/03/09 06:33:57;;;;;;;8.23;5.78;;;-1.60;99.90;;;;;;5087195;28;20168;-72
2022/03/09 06:36:24;;;;;;;7.43;4.63;;;-1.40;99.90;;;;;;5089228;28;20188;-73
2022/03/09 06:38:50;;;;;;;12.90;5.07;;;-1.30;99.90;;;;;;5088962;28;20156;-74
2022/03/09 06:41:16;;;;;;;9.15;5.10;;;-1.30;99.90;;;;;;5087473;28;20262;-73
2022/03/09 06:43:42;;;;;;;16.77;5.32;;;-1.20;99.90;;;;;;5088693;28;20302;-73
2022/03/09 06:46:08;;;;;;;13.65;5.38;;;-1.00;99.90;;;;;;5088922;28;20195;-74
2022/03/09 06:48:34;;;;;;;11.70;5.30;;;-1.00;99.90;;;;;;5089085;28;20160;-74
2022/03/09 06:51:00;;;;;;;11.20;5.43;;;-1.00;99.90;;;;;;5088769;28;20159;-74
2022/03/09 06:53:26;;;;;;;9.32;5.35;;;-0.80;99.90;;;;;;5088853;28;20184;-74
2022/03/09 06:55:52;;;;;;;8.82;6.03;;;-0.40;99.90;;;;;;5087695;28;20198;-74
2022/03/09 06:58:18;;;;;;;14.25;5.47;;;0.10;99.90;;;;;;5088936;28;20160;-73
2022/03/09 07:00:44;;;;;;;17.88;6.72;;;0.40;99.90;;;;;;5088860;28;20156;-73
2022/03/09 07:03:09;;;;;;;14.60;5.90;;;0.30;99.90;;;;;;5088671;28;20175;-73
2022/03/09 07:05:35;;;;;;;16.00;6.35;;;0.40;99.90;;;;;;5086341;28;20211;-73
2022/03/09 07:08:02;;;;;;;19.70;6.20;;;0.50;99.90;;;;;;5088681;28;20193;-73
2022/03/09 07:10:28;;;;;;;14.27;5.78;;;0.50;99.90;;;;;;5088751;28;20522;-73
2022/03/09 07:12:54;;;;;;;14.45;6.32;;;0.50;99.90;;;;;;5088722;28;20267;-73
2022/03/09 07:15:21;;;;;;;7.13;5.13;;;0.70;99.90;;;;;;5088541;28;20194;-73
2022/03/09 07:17:48;;;;;;;13.02;5.35;;;0.80;99.90;;;;;;5088519;28;20166;-73
2022/03/09 07:20:16;;;;;;;18.15;5.53;;;1.10;99.90;;;;;;5087405;28;20172;-73
2022/03/09 07:22:43;;;;;;;13.63;5.97;;;1.00;99.90;;;;;;5088755;28;20259;-73
2022/03/09 07:25:10;;;;;;;10.45;5.47;;;1.00;99.90;;;;;;5088489;28;20194;-73
2022/03/09 07:27:37;;;;;;;12.65;5.25;;;0.90;99.90;;;;;;5087260;28;20167;-73
2022/03/09 07:30:04;;;;;;;11.15;5.07;;;1.70;99.90;;;;;;5088541;28;20164;-73
2022/03/09 07:32:33;;;;;;;10.63;4.90;;;2.00;99.90;;;;;;5086777;28;20206;-73
2022/03/09 07:34:59;;;;;;;12.27;6.07;;;2.10;99.90;;;;;;5087122;28;20192;-73
2022/03/09 07:37:25;;;;;;;8.23;5.05;;;2.40;99.90;;;;;;5088482;28;20196;-72
2022/03/09 07:39:51;;;;;;;11.25;5.13;;;3.00;99.90;;;;;;5088126;28;20583;-73
2022/03/09 07:42:17;;;;;;;13.88;4.97;;;3.70;99.90;;;;;;5088549;28;20628;-72
2022/03/09 07:44:43;;;;;;;10.00;5.85;;;4.00;99.90;;;;;;5091306;28;20183;-73
2022/03/09 07:47:09;;;;;;;14.02;5.32;;;4.00;99.90;;;;;;5092065;28;20190;-72
2022/03/09 07:49:36;;;;;;;8.88;5.13;;;3.90;99.60;;;;;;5091050;28;20175;-72
2022/03/09 07:52:03;;;;;;;7.50;5.00;;;3.90;99.90;;;;;;5092068;28;20270;-73
2022/03/09 07:54:30;;;;;;;9.98;4.85;;;5.00;98.50;;;;;;5092433;28;20160;-73
2022/03/09 07:56:56;;;;;;;11.63;5.28;;;5.20;97.30;;;;;;5092140;28;20192;-73
2022/03/09 07:59:22;;;;;;;8.60;5.47;;;4.80;98.00;;;;;;5092454;28;20156;-73
2022/03/09 08:01:52;;;;;;;10.48;6.55;;;4.90;98.10;;;;;;5092229;28;20156;-73
2022/03/09 08:04:23;;;;;;;11.40;5.47;;;7.00;96.00;;;;;;5091907;28;20216;-73
2022/03/09 08:06:50;;;;;;;12.63;5.85;;;9.70;92.80;;;;;;5092007;28;20344;-73
2022/03/09 08:09:17;;;;;;;8.40;5.72;;;11.10;90.60;;;;;;5091925;28;20152;-73
2022/03/09 08:11:44;;;;;;;9.75;5.82;;;12.30;88.90;;;;;;5091959;28;20364;-73
2022/03/09 08:14:11;;;;;;;15.70;5.90;;;12.70;87.50;;;;;;5092022;28;20176;-73
2022/03/09 08:16:37;;;;;;;9.85;5.68;;;13.40;85.80;;;;;;5090496;28;20195;-73
2022/03/09 08:19:04;;;;;;;16.73;7.07;;;13.50;84.70;;;;;;5091923;28;20200;-73
2022/03/09 08:21:30;;;;;;;10.65;5.90;;;13.50;85.00;;;;;;5088694;28;20230;-73
2022/03/09 08:23:57;;;;;;;11.98;6.40;;;13.90;83.60;;;;;;5081804;28;20184;-73
2022/03/09 08:26:23;;;;;;;12.27;6.00;;;14.00;82.90;;;;;;5072703;28;20200;-73
2022/03/09 08:28:49;;;;;;;11.98;5.97;;;14.30;81.60;;;;;;5071608;28;20223;-73
2022/03/09 08:31:16;;;;;;;12.00;5.40;;;14.80;81.30;;;;;;5071660;28;20192;-73
2022/03/09 08:33:42;;;;;;;14.05;5.22;;;14.80;82.10;;;;;;5071206;28;20193;-73
2022/03/09 08:36:11;;;;;;;11.75;5.05;;;14.60;80.50;;;;;;5071646;28;20285;-73
2022/03/09 08:38:37;;;;;;;10.60;5.00;;;14.40;82.00;;;;;;5071303;28;20157;-72
2022/03/09 08:41:02;;;;;;;11.27;5.15;;;14.60;81.40;;;;;;5071481;28;20226;-73
2022/03/09 08:43:29;;;;;;;11.52;5.47;;;14.80;81.10;;;;;;5071507;28;20192;-73
2022/03/09 08:45:55;;;;;;;10.40;4.75;;;15.10;80.90;;;;;;5071365;28;20273;-72
2022/03/09 08:48:21;;;;;;;12.82;5.20;;;14.00;82.10;;;;;;5074531;28;20191;-73
2022/03/09 08:50:47;;;;;;;10.95;4.32;;;14.50;81.60;;;;;;5078469;28;20168;-73
2022/03/09 08:53:13;;;;;;;8.38;4.90;;;15.30;80.60;;;;;;5080514;28;20284;-72
2022/03/09 08:55:39;;;;;;;12.93;4.53;;;16.40;78.70;;;;;;5071518;28;20200;-73
2022/03/09 08:58:05;;;;;;;8.60;4.85;;;16.20;79.30;;;;;;5071178;28;20195;-73
2022/03/09 09:00:31;;;;;;;6.20;4.13;;;15.80;80.00;;;;;;5071119;28;20172;-73
2022/03/09 09:02:57;;;;;;;7.55;4.47;;;15.50;79.90;;;;;;5070925;28;20161;-73
2022/03/09 09:05:23;;;;;;;10.00;4.75;;;16.30;78.60;;;;;;5073570;28;20231;-73
2022/03/09 09:07:49;;;;;;;5.57;4.00;;;15.80;79.10;;;;;;5089879;28;20176;-73
2022/03/09 09:10:15;;;;;;;6.63;3.72;;;15.70;79.60;;;;;;5091096;28;20258;-72
2022/03/09 09:12:41;;;;;;;5.65;3.95;;;15.50;78.30;;;;;;5091079;28;20195;-72
2022/03/09 09:15:08;;;;;;;7.63;3.95;;;15.20;78.60;;;;;;5079749;28;20187;-73
2022/03/09 09:17:35;;;;;;;7.50;4.38;;;14.60;79.30;;;;;;5080327;28;20176;-69
2022/03/09 09:20:01;;;;;;;7.78;3.97;;;14.40;80.30;;;;;;5088153;28;20167;-71
2022/03/09 09:22:27;;;;;;;5.55;3.80;;;14.50;79.60;;;;;;5106248;28;20172;-70
2022/03/09 09:24:53;;;;;;;15.30;5.50;;;14.50;80.10;;;;;;5098667;28;20195;-71
2022/03/09 09:27:18;;;;;;;5.95;4.60;;;14.70;80.40;;;;;;5099221;28;20222;-71
2022/03/09 09:29:44;;;;;;;5.68;4.22;;;16.20;78.30;;;;;;5106377;28;20274;-70
2022/03/09 09:32:10;;;;;;;7.65;4.25;;;17.30;76.10;;;;;;5094018;28;20243;-70
2022/03/09 09:34:36;;;;;;;13.05;4.40;;;16.50;75.10;;;;;;5110853;28;20167;-70
2022/03/09 09:37:02;;;;;;;9.07;4.57;;;15.30;77.90;;;;;;5101563;28;20203;-71
2022/03/09 09:39:29;;;;;;;6.07;4.28;;;15.00;78.00;;;;;;5103906;28;20164;-70
2022/03/09 09:41:55;;;;;;;11.15;3.60;;;15.60;77.70;;;;;;5092737;28;20172;-70
2022/03/09 09:44:23;;;;;;;7.50;4.00;;;15.40;77.40;;;;;;5106781;28;20164;-70
2022/03/09 09:46:51;;;;;;;7.88;4.20;;;15.70;77.60;;;;;;5098133;28;20199;-72
2022/03/09 09:49:23;;;;;;;5.93;3.85;;;16.30;75.90;;;;;;5097405;28;20236;-72
2022/03/09 09:51:51;;;;;;;7.57;3.42;;;15.70;76.80;;;;;;5106208;28;20187;-70
2022/03/09 09:54:17;;;;;;;7.05;4.15;;;14.90;77.80;;;;;;5093509;28;20179;-71
2022/03/09 09:56:44;;;;;;;6.20;4.00;;;15.50;78.30;;;;;;5101536;28;20210;-72
2022/03/09 09:59:10;;;;;;;7.00;3.70;;;15.90;76.30;;;;;;5092295;28;20179;-72
2022/03/09 10:01:37;;;;;;;7.45;4.38;;;15.70;77.60;;;;;;5104483;28;20197;-71
2022/03/09 10:04:04;;;;;;;10.75;3.67;;;15.50;76.50;;;;;;5092247;28;20265;-71
2022/03/09 10:06:31;;;;;;;6.28;4.20;;;14.30;78.10;;;;;;5103518;28;20222;-71
2022/03/09 10:09:07;;;;;;;10.90;4.18;;;14.20;80.30;;;;;;5098242;28;20160;-71
2022/03/09 10:11:53;;;;;;;5.78;3.78;;;14.80;79.20;;;;;;5096838;28;20172;-71
2022/03/09 10:14:48;;;;;;;9.00;4.32;;;14.30;79.20;;;;;;5107155;28;20181;-71
2022/03/09 10:17:16;;;;;;;8.07;3.70;;;15.40;79.00;;;;;;5099460;28;20191;-71
2022/03/09 10:19:46;;;;;;;6.60;4.32;;;16.90;76.50;;;;;;5096532;28;20606;-71
2022/03/09 10:22:28;;;;;;;6.00;3.80;;;17.70;75.40;;;;;;5105464;28;20240;-71
2022/03/09 10:24:59;;;;;;;8.30;3.70;;;17.50;73.80;;;;;;5097321;28;20230;-71
2022/03/09 10:27:39;;;;;;;5.78;4.25;;;16.70;74.90;;;;;;5099176;28;20243;-71
2022/03/09 10:30:22;;;;;;;7.60;3.95;;;15.60;77.30;;;;;;5106436;28;20182;-70
2022/03/09 10:32:56;;;;;;;6.03;3.42;;;15.50;77.00;;;;;;5096327;28;20193;-71
2022/03/09 10:35:31;;;;;;;9.45;3.35;;;15.60;77.80;;;;;;5099358;28;20192;-70
2022/03/09 10:37:59;;;;;;;10.90;3.70;;;15.70;77.90;;;;;;5104996;28;20238;-71
2022/03/09 10:40:27;;;;;;;5.13;2.95;;;16.20;76.40;;;;;;5109489;28;20148;-71
2022/03/09 10:43:12;;;;;;;11.40;3.70;;;16.50;77.40;;;;;;5109455;28;20163;-71
2022/03/09 10:46:12;;;;;;;7.93;3.92;;;16.40;75.20;;;;;;5109348;28;20194;-72
2022/03/09 10:48:55;;;;;;;5.47;3.50;;;14.50;78.30;;;;;;5109345;28;20159;-71
2022/03/09 10:51:46;;;;;;;6.60;2.97;;;14.00;80.30;;;;;;5109195;28;20195;-70
2022/03/09 10:54:26;;;;;;;4.18;3.30;;;13.90;80.80;;;;;;5103846;28;20172;-71
2022/03/09 10:57:07;;;;;;;5.47;2.78;;;14.90;79.40;;;;;;5084702;28;20157;-71
2022/03/09 10:59:51;;;;;;;8.45;2.83;;;14.30;77.90;;;;;;5068873;28;20224;-71
2022/03/09 11:02:19;;;;;;;6.68;2.97;;;14.70;81.10;;;;;;5068716;28;20157;-71
2022/03/09 11:05:07;;;;;;;5.60;2.40;;;15.00;78.80;;;;;;5068464;28;20220;-71
2022/03/09 11:07:38;;;;;;;6.70;2.88;;;14.30;78.00;;;;;;5068803;28;20160;-71
2022/03/09 11:10:08;;;;;;;3.42;2.55;;;14.40;78.40;;;;;;5068644;28;20167;-71
2022/03/09 11:12:36;;;;;;;3.67;2.50;;;14.30;78.20;;;;;;5068713;28;20557;-70
2022/03/09 11:15:03;;;;;;;5.70;2.60;;;14.80;80.40;;;;;;5067325;28;20211;-72
2022/03/09 11:17:29;;;;;;;2.95;2.20;;;15.60;78.80;;;;;;5084329;28;20176;-72
2022/03/09 11:19:55;;;;;;;6.72;2.67;;;15.30;76.30;;;;;;5093433;28;20171;-72
2022/03/09 11:22:21;;;;;;;5.00;2.42;;;15.00;77.00;;;;;;5095058;28;20168;-72
2022/03/09 11:24:48;;;;;;;3.63;2.50;;;15.40;77.30;;;;;;5095199;28;20196;-72
2022/03/09 11:27:15;;;;;;;3.85;2.80;;;15.90;77.00;;;;;;5088774;28;20279;-72
2022/03/09 11:29:42;;;;;;;8.77;3.15;;;16.10;78.00;;;;;;5091792;28;20203;-72
2022/03/09 11:32:14;;;;;;;4.03;2.58;;;16.70;76.90;;;;;;5088378;28;20199;-72
2022/03/09 11:34:41;;;;;;;5.05;2.70;;;15.80;75.80;;;;;;5083808;28;20198;-72
2022/03/09 11:37:17;;;;;;;5.95;3.15;;;15.70;77.00;;;;;;5083655;28;20176;-73
2022/03/09 11:39:45;;;;;;;4.75;2.95;;;14.90;76.80;;;;;;5074886;28;20191;-71
2022/03/09 12:23:30;;;;;;;4.05;2.65;;;18.20;75.00;;;;;;5074972;28;20236;-69
2022/03/09 12:25:58;;;;;;;4.65;2.60;;;18.10;71.60;;;;;;5074087;28;20251;-69
2022/03/09 12:28:24;;;;;;;6.97;3.17;;;17.30;73.40;;;;;;5073396;28;20169;-69
2022/03/09 12:30:58;;;;;;;5.15;2.25;;;17.70;73.40;;;;;;5070125;28;20184;-69
2022/03/09 12:33:34;;;;;;;9.57;3.15;;;17.30;73.10;;;;;;5071173;28;20192;-69
2022/03/09 12:36:14;;;;;;;4.85;2.85;;;16.30;75.70;;;;;;5070779;28;20191;-69
2022/03/09 12:38:46;;;;;;;2.97;2.35;;;14.60;78.00;;;;;;5071373;28;20144;-68
2022/03/09 12:41:31;;;;;;;4.85;2.58;;;13.30;80.00;;;;;;5071287;28;20145;-68
2022/03/09 12:44:09;;;;;;;7.85;3.88;;;12.90;82.80;;;;;;5069207;28;20173;-69
2022/03/09 12:46:39;;;;;;;3.42;2.53;;;12.70;83.00;;;;;;5070315;28;20259;-68
2022/03/09 12:49:17;;;;;;;5.32;2.53;;;12.30;83.10;;;;;;5071008;28;20165;-69
2022/03/09 12:51:59;;;;;;;8.32;3.33;;;11.90;85.60;;;;;;5071053;28;20157;-68
2022/03/09 12:54:33;;;;;;;6.72;2.95;;;11.90;85.10;;;;;;5073072;28;20184;-68
2022/03/09 12:57:14;;;;;;;4.20;2.95;;;11.80;85.50;;;;;;5075662;28;20191;-69
2022/03/09 13:00:02;;;;;;;8.23;3.25;;;11.70;85.70;;;;;;5091137;28;20224;-68
2022/03/09 13:02:39;;;;;;;4.22;2.92;;;11.90;86.30;;;;;;5090973;28;20180;-68
2022/03/09 13:05:06;;;;;;;5.93;2.40;;;11.80;85.70;;;;;;5089537;28;20235;-69
2022/03/09 13:07:32;;;;;;;5.95;3.17;;;12.00;84.70;;;;;;5088922;28;20201;-69
2022/03/09 13:10:07;;;;;;;3.55;2.20;;;11.90;85.10;;;;;;5089591;28;20162;-68
2022/03/09 13:12:34;;;;;;;2.80;2.35;;;11.80;85.00;;;;;;5085768;28;20208;-69
2022/03/09 13:15:01;;;;;;;4.78;2.75;;;11.50;86.60;;;;;;5070624;28;20167;-67
2022/03/09 13:17:29;;;;;;;3.97;2.72;;;11.60;86.00;;;;;;5070098;28;20157;-69
2022/03/09 13:19:55;;;;;;;6.65;2.90;;;11.80;86.60;;;;;;5070719;28;20149;-69
2022/03/09 13:22:24;;;;;;;3.58;2.70;;;11.60;86.80;;;;;;5078758;28;20290;-69
2022/03/09 13:25:19;;;;;;;5.55;2.65;;;11.80;87.00;;;;;;5070576;28;20161;-69
2022/03/09 13:27:46;;;;;;;5.35;2.35;;;11.50;86.60;;;;;;5050692;28;20189;-69
2022/03/09 13:30:22;;;;;;;6.80;2.60;;;11.60;85.60;;;;;;5067760;28;20177;-69
2022/03/09 13:32:48;;;;;;;10.27;3.10;;;11.40;86.50;;;;;;5071347;28;20299;-69